Time;durP1;ratioP1;P1;durP2;ratioP2;P2;SDS_P1;SDS_P2;PMS_P1;PMS_P2;Temp;Humidity;BMP_temperature;BMP_pressure;BME280_temperature;BME280_humidity;BME280_pressure;Samples;Min_cycle;Max_cycle;Signal;HPM_P1;HPM_P2
2023/07/17 00:00:47;;;;;;;11.40;4.87;;;;;;;;;;5054887;28;20448;-46
2023/07/17 00:03:14;;;;;;;14.07;5.00;;;;;;;;;;5053244;28;20904;-46
2023/07/17 00:05:40;;;;;;;9.77;5.17;;;;;;;;;;5049025;28;20891;-46
2023/07/17 00:08:06;;;;;;;7.77;4.30;;;;;;;;;;5053336;28;20492;-46
2023/07/17 00:10:32;;;;;;;6.70;4.63;;;;;;;;;;5053397;28;20794;-46
2023/07/17 00:12:58;;;;;;;10.63;5.13;;;;;;;;;;5048110;28;20384;-47
2023/07/17 00:15:24;;;;;;;5.50;4.57;;;;;;;;;;5044841;28;20470;-47
2023/07/17 00:17:50;;;;;;;7.20;5.27;;;;;;;;;;5054147;28;20408;-46
2023/07/17 00:20:16;;;;;;;8.43;5.20;;;;;;;;;;5053684;28;20492;-48
2023/07/17 00:22:42;;;;;;;9.77;5.33;;;;;;;;;;5049256;28;20395;-51
2023/07/17 00:25:08;;;;;;;6.57;4.40;;;;;;;;;;5053430;28;20717;-47
2023/07/17 00:27:35;;;;;;;7.13;5.00;;;;;;;;;;5052795;28;20383;-50
2023/07/17 00:30:01;;;;;;;4.77;4.20;;;;;;;;;;5053596;28;20436;-48
2023/07/17 00:32:27;;;;;;;6.90;4.87;;;;;;;;;;5052944;28;20438;-50
2023/07/17 00:34:53;;;;;;;7.77;4.57;;;;;;;;;;5053892;28;20501;-45
2023/07/17 00:37:19;;;;;;;8.47;5.03;;;;;;;;;;5053899;28;20421;-46
2023/07/17 00:39:44;;;;;;;5.77;5.00;;;;;;;;;;5053552;28;20531;-46
2023/07/17 00:42:10;;;;;;;6.17;4.53;;;;;;;;;;5053650;28;20463;-46
2023/07/17 00:44:38;;;;;;;6.93;4.23;;;;;;;;;;5052708;28;20408;-48
2023/07/17 00:47:04;;;;;;;11.50;4.37;;;;;;;;;;5053692;28;20388;-46
2023/07/17 00:49:30;;;;;;;6.30;4.50;;;;;;;;;;5053369;28;20514;-51
2023/07/17 00:51:57;;;;;;;6.10;4.00;;;;;;;;;;5053359;28;20415;-46
2023/07/17 00:54:23;;;;;;;12.80;5.30;;;;;;;;;;5053392;28;20990;-48
2023/07/17 00:56:49;;;;;;;8.23;4.50;;;;;;;;;;5053502;28;20388;-50
2023/07/17 00:59:15;;;;;;;7.57;5.47;;;;;;;;;;5052642;28;20433;-45
2023/07/17 01:01:43;;;;;;;5.97;4.07;;;;;;;;;;5052986;28;20384;-46
2023/07/17 01:04:09;;;;;;;4.73;3.80;;;;;;;;;;5052821;28;20401;-46
2023/07/17 01:06:38;;;;;;;5.10;3.80;;;;;;;;;;5052929;28;20398;-46
2023/07/17 01:09:04;;;;;;;7.27;4.27;;;;;;;;;;5052879;28;20421;-50
2023/07/17 01:11:30;;;;;;;7.40;4.07;;;;;;;;;;5052739;28;20405;-51
2023/07/17 01:13:57;;;;;;;5.60;4.13;;;;;;;;;;5052525;28;20739;-50
2023/07/17 01:16:23;;;;;;;8.23;4.67;;;;;;;;;;5053038;28;20914;-49
2023/07/17 01:18:48;;;;;;;4.23;3.80;;;;;;;;;;5053120;28;20485;-46
2023/07/17 01:21:17;;;;;;;7.40;4.27;;;;;;;;;;5046920;28;20825;-45
2023/07/17 01:23:44;;;;;;;4.83;4.43;;;;;;;;;;5052967;28;20936;-49
2023/07/17 01:26:11;;;;;;;7.90;4.30;;;;;;;;;;5052351;28;20486;-47
2023/07/17 01:28:37;;;;;;;4.83;4.37;;;;;;;;;;5052839;28;20896;-45
2023/07/17 01:31:03;;;;;;;9.60;4.73;;;;;;;;;;5052623;28;20423;-46
2023/07/17 01:33:29;;;;;;;11.27;4.50;;;;;;;;;;5052078;28;20422;-46
2023/07/17 01:35:55;;;;;;;5.90;3.70;;;;;;;;;;5052493;28;20456;-47
2023/07/17 01:38:21;;;;;;;4.83;4.00;;;;;;;;;;5052594;28;20867;-49
2023/07/17 01:40:47;;;;;;;4.67;4.10;;;;;;;;;;5051459;28;20998;-48
2023/07/17 01:43:13;;;;;;;4.97;4.30;;;;;;;;;;5052702;28;20913;-51
2023/07/17 01:45:39;;;;;;;6.37;4.00;;;;;;;;;;5052559;28;20883;-46
2023/07/17 01:48:05;;;;;;;10.23;4.47;;;;;;;;;;5048738;28;20441;-47
2023/07/17 01:50:31;;;;;;;5.53;4.00;;;;;;;;;;5052047;28;20434;-46
2023/07/17 01:52:57;;;;;;;6.03;4.50;;;;;;;;;;5052449;28;20389;-47
2023/07/17 01:55:23;;;;;;;6.40;4.63;;;;;;;;;;5051590;28;20424;-46
2023/07/17 01:57:49;;;;;;;4.87;4.33;;;;;;;;;;5052250;28;20418;-46
2023/07/17 02:00:15;;;;;;;6.07;4.10;;;;;;;;;;5048026;28;20451;-46
2023/07/17 02:02:41;;;;;;;5.67;5.10;;;;;;;;;;5052095;28;20411;-46
2023/07/17 02:05:07;;;;;;;8.47;5.00;;;;;;;;;;5052099;28;20413;-48
2023/07/17 02:07:33;;;;;;;6.40;4.73;;;;;;;;;;5049508;28;20381;-48
2023/07/17 02:09:59;;;;;;;6.20;4.87;;;;;;;;;;5049358;28;20480;-51
2023/07/17 02:12:25;;;;;;;6.27;4.10;;;;;;;;;;5051981;28;20461;-46
2023/07/17 02:14:51;;;;;;;4.53;4.10;;;;;;;;;;5051972;28;20417;-46
2023/07/17 02:17:17;;;;;;;6.37;4.40;;;;;;;;;;5051809;28;20422;-45
2023/07/17 02:19:43;;;;;;;13.73;4.20;;;;;;;;;;5045436;28;20521;-47
2023/07/17 02:22:09;;;;;;;7.53;3.93;;;;;;;;;;5051784;28;20385;-46
2023/07/17 02:24:35;;;;;;;5.30;3.53;;;;;;;;;;5050615;28;20388;-47
2023/07/17 02:27:02;;;;;;;7.53;3.90;;;;;;;;;;5052031;28;20753;-46
2023/07/17 02:29:28;;;;;;;5.57;3.77;;;;;;;;;;5051788;28;20538;-45
2023/07/17 02:31:54;;;;;;;5.00;3.87;;;;;;;;;;5051916;28;20389;-46
2023/07/17 02:34:20;;;;;;;6.97;3.27;;;;;;;;;;5051575;28;20400;-46
2023/07/17 02:36:46;;;;;;;3.50;3.00;;;;;;;;;;5051660;28;20388;-47
2023/07/17 02:39:12;;;;;;;5.83;2.77;;;;;;;;;;5050538;28;20437;-53
2023/07/17 02:41:38;;;;;;;5.37;3.03;;;;;;;;;;5051307;28;20989;-47
2023/07/17 02:44:04;;;;;;;5.60;3.37;;;;;;;;;;5051727;28;20426;-50
2023/07/17 02:46:30;;;;;;;4.90;3.27;;;;;;;;;;5051356;28;20415;-46
2023/07/17 02:48:56;;;;;;;5.37;3.60;;;;;;;;;;5051393;28;20404;-47
2023/07/17 02:51:22;;;;;;;4.97;3.30;;;;;;;;;;5051265;28;20496;-46
2023/07/17 02:53:48;;;;;;;4.00;2.87;;;;;;;;;;5050405;28;20398;-46
2023/07/17 02:56:14;;;;;;;4.87;2.93;;;;;;;;;;5049083;28;20401;-47
2023/07/17 02:58:48;;;;;;;4.77;3.27;;;;;;;;;;5051441;28;20414;-45
2023/07/17 03:01:14;;;;;;;6.53;3.40;;;;;;;;;;5051078;28;20465;-46
2023/07/17 03:03:40;;;;;;;4.27;2.73;;;;;;;;;;5051397;28;20920;-47
2023/07/17 03:06:06;;;;;;;3.87;2.80;;;;;;;;;;5051369;28;20921;-51
2023/07/17 03:08:33;;;;;;;3.77;3.47;;;;;;;;;;5050887;28;20478;-47
2023/07/17 03:11:03;;;;;;;2.50;2.30;;;;;;;;;;5051203;28;20965;-47
2023/07/17 03:13:29;;;;;;;9.47;3.70;;;;;;;;;;5047232;28;20448;-48
2023/07/17 03:15:58;;;;;;;7.73;3.00;;;;;;;;;;5051344;28;20454;-50
2023/07/17 03:18:26;;;;;;;3.23;2.50;;;;;;;;;;5051047;28;20519;-45
2023/07/17 03:20:52;;;;;;;3.43;2.73;;;;;;;;;;5050154;28;20471;-47
2023/07/17 03:23:18;;;;;;;8.00;2.70;;;;;;;;;;5051213;28;20480;-48
2023/07/17 03:25:44;;;;;;;3.67;2.90;;;;;;;;;;5051118;28;20382;-48
2023/07/17 03:28:10;;;;;;;3.50;2.37;;;;;;;;;;5051222;28;20428;-45
2023/07/17 03:30:36;;;;;;;6.60;2.77;;;;;;;;;;5050942;28;20400;-50
2023/07/17 03:33:03;;;;;;;4.73;3.10;;;;;;;;;;5051033;28;20420;-45
2023/07/17 03:35:29;;;;;;;6.57;2.60;;;;;;;;;;5050300;28;20893;-48
2023/07/17 03:37:55;;;;;;;3.07;2.50;;;;;;;;;;5051028;28;20382;-50
2023/07/17 03:40:21;;;;;;;3.60;3.17;;;;;;;;;;5050730;28;20925;-45
2023/07/17 03:42:47;;;;;;;5.00;2.57;;;;;;;;;;5051179;28;20402;-46
2023/07/17 03:45:13;;;;;;;4.37;2.33;;;;;;;;;;5050976;28;20416;-49
2023/07/17 03:47:39;;;;;;;4.20;2.60;;;;;;;;;;5043599;28;20423;-45
2023/07/17 03:50:05;;;;;;;7.47;3.00;;;;;;;;;;5050015;28;20470;-45
2023/07/17 03:52:31;;;;;;;5.33;3.40;;;;;;;;;;5050965;28;20416;-47
2023/07/17 03:54:58;;;;;;;2.93;2.30;;;;;;;;;;5047172;28;20420;-48
2023/07/17 03:57:24;;;;;;;4.53;2.67;;;;;;;;;;5051997;28;20437;-45
2023/07/17 03:59:54;;;;;;;4.60;2.70;;;;;;;;;;5054162;28;20503;-46
2023/07/17 04:02:20;;;;;;;4.87;2.77;;;;;;;;;;5053863;28;20493;-46
2023/07/17 04:04:47;;;;;;;2.37;2.17;;;;;;;;;;5054548;28;20412;-45
2023/07/17 04:07:13;;;;;;;4.67;2.70;;;;;;;;;;5052500;28;20498;-48
2023/07/17 04:09:41;;;;;;;2.90;2.37;;;;;;;;;;5054125;28;20521;-55
2023/07/17 04:12:08;;;;;;;2.80;2.60;;;;;;;;;;5047975;28;20449;-47
2023/07/17 04:14:34;;;;;;;4.87;3.30;;;;;;;;;;5053118;28;20817;-47
2023/07/17 04:17:00;;;;;;;2.90;2.70;;;;;;;;;;5054020;28;20420;-45
2023/07/17 04:19:29;;;;;;;2.93;2.60;;;;;;;;;;5054055;28;20419;-45
2023/07/17 04:21:55;;;;;;;3.33;2.70;;;;;;;;;;5053856;28;20408;-45
2023/07/17 04:24:23;;;;;;;3.50;3.20;;;;;;;;;;5054299;28;20415;-47
2023/07/17 04:26:52;;;;;;;4.70;3.80;;;;;;;;;;5054066;28;20451;-50
2023/07/17 04:29:18;;;;;;;2.63;2.43;;;;;;;;;;5053363;28;20462;-46
2023/07/17 04:31:44;;;;;;;4.10;2.43;;;;;;;;;;5053684;28;20442;-46
2023/07/17 04:34:10;;;;;;;6.47;2.90;;;;;;;;;;5053883;28;20417;-47
2023/07/17 04:36:36;;;;;;;6.13;2.90;;;;;;;;;;5053808;28;20409;-46
2023/07/17 04:39:04;;;;;;;3.43;2.50;;;;;;;;;;5053783;28;20420;-51
2023/07/17 04:41:30;;;;;;;3.53;2.70;;;;;;;;;;5053507;28;20468;-50
2023/07/17 04:43:58;;;;;;;4.03;2.67;;;;;;;;;;5053152;28;20447;-50
2023/07/17 04:46:25;;;;;;;4.70;2.60;;;;;;;;;;5051662;28;20823;-45
2023/07/17 04:48:51;;;;;;;6.60;2.50;;;;;;;;;;5053573;28;20456;-45
2023/07/17 04:51:17;;;;;;;3.20;3.00;;;;;;;;;;5053490;28;20919;-45
2023/07/17 04:53:42;;;;;;;5.23;4.00;;;;;;;;;;5053577;28;20973;-46
2023/07/17 04:56:08;;;;;;;4.33;2.87;;;;;;;;;;5053540;28;20412;-46
2023/07/17 04:58:34;;;;;;;3.03;2.60;;;;;;;;;;5052955;28;20471;-47
2023/07/17 05:01:01;;;;;;;3.57;3.10;;;;;;;;;;5053280;28;20471;-48
2023/07/17 05:03:30;;;;;;;6.03;2.67;;;;;;;;;;5053477;28;20414;-46
2023/07/17 05:05:57;;;;;;;4.50;2.63;;;;;;;;;;5053464;28;20464;-45
2023/07/17 05:08:24;;;;;;;3.97;3.07;;;;;;;;;;5053144;28;20435;-49
2023/07/17 05:10:58;;;;;;;7.07;3.17;;;;;;;;;;5052713;28;20428;-45
2023/07/17 05:13:25;;;;;;;3.83;2.83;;;;;;;;;;5053134;28;20817;-46
2023/07/17 05:15:51;;;;;;;6.53;3.00;;;;;;;;;;5053156;28;20390;-45
2023/07/17 05:18:18;;;;;;;3.60;2.90;;;;;;;;;;5053070;28;20430;-45
2023/07/17 05:20:45;;;;;;;5.10;3.23;;;;;;;;;;5052658;28;20461;-46
2023/07/17 05:23:11;;;;;;;3.23;2.93;;;;;;;;;;5053044;28;20740;-45
2023/07/17 05:25:37;;;;;;;6.43;3.10;;;;;;;;;;5052404;28;20414;-46
2023/07/17 05:28:04;;;;;;;3.60;3.30;;;;;;;;;;5052902;28;20439;-46
2023/07/17 05:30:33;;;;;;;5.90;2.77;;;;;;;;;;5052574;28;20504;-49
2023/07/17 05:32:59;;;;;;;3.33;2.60;;;;;;;;;;5052779;28;20391;-45
2023/07/17 05:35:25;;;;;;;3.57;3.00;;;;;;;;;;5052622;28;20383;-46
2023/07/17 05:37:53;;;;;;;5.43;3.10;;;;;;;;;;5052672;28;20503;-46
2023/07/17 05:40:19;;;;;;;3.70;2.73;;;;;;;;;;5051901;28;20459;-50
2023/07/17 05:42:45;;;;;;;4.13;3.30;;;;;;;;;;5052605;28;20383;-46
2023/07/17 05:45:11;;;;;;;4.83;2.93;;;;;;;;;;5052408;28;20387;-45
2023/07/17 05:47:38;;;;;;;4.53;2.63;;;;;;;;;;5047449;28;20413;-45
2023/07/17 05:50:05;;;;;;;4.27;3.73;;;;;;;;;;5052072;28;20420;-45
2023/07/17 05:52:31;;;;;;;3.60;2.87;;;;;;;;;;5052231;28;20511;-46
2023/07/17 05:54:57;;;;;;;6.93;2.73;;;;;;;;;;5052356;28;20798;-46
2023/07/17 05:57:23;;;;;;;2.60;2.40;;;;;;;;;;5052386;28;20446;-46
2023/07/17 05:59:49;;;;;;;4.77;3.23;;;;;;;;;;5051843;28;20470;-45
2023/07/17 06:02:15;;;;;;;5.83;4.00;;;;;;;;;;5053152;28;20868;-48
2023/07/17 06:04:41;;;;;;;6.53;3.60;;;;;;;;;;5052290;28;20849;-50
2023/07/17 06:07:08;;;;;;;4.50;3.30;;;;;;;;;;5051732;28;20389;-46
2023/07/17 06:09:37;;;;;;;3.90;3.00;;;;;;;;;;5051936;28;20809;-48
2023/07/17 06:12:03;;;;;;;3.80;3.40;;;;;;;;;;5052069;28;20404;-46
2023/07/17 06:14:29;;;;;;;7.43;3.90;;;;;;;;;;5052212;28;20463;-46
2023/07/17 06:16:55;;;;;;;6.80;3.90;;;;;;;;;;5052087;28;20415;-47
2023/07/17 06:19:21;;;;;;;10.07;6.17;;;;;;;;;;5051785;28;20442;-48
2023/07/17 06:21:48;;;;;;;5.93;3.40;;;;;;;;;;5051121;28;20478;-46
2023/07/17 06:24:14;;;;;;;4.87;3.83;;;;;;;;;;5050416;28;20427;-46
2023/07/17 06:26:42;;;;;;;6.73;3.60;;;;;;;;;;5051925;28;20420;-47
2023/07/17 06:29:10;;;;;;;7.30;3.93;;;;;;;;;;5051838;28;20823;-48
2023/07/17 06:31:36;;;;;;;4.90;3.27;;;;;;;;;;5051749;28;20394;-47
2023/07/17 06:34:02;;;;;;;10.63;4.63;;;;;;;;;;5051755;28;20387;-46
2023/07/17 06:36:30;;;;;;;5.00;3.93;;;;;;;;;;5051566;28;20795;-49
2023/07/17 06:38:56;;;;;;;10.00;4.67;;;;;;;;;;5051736;28;20761;-46
2023/07/17 06:41:23;;;;;;;8.30;4.27;;;;;;;;;;5051278;28;20471;-46
2023/07/17 06:43:49;;;;;;;5.47;4.20;;;;;;;;;;5051564;28;20425;-47
2023/07/17 06:46:17;;;;;;;9.33;4.73;;;;;;;;;;5044903;28;20413;-50
2023/07/17 06:48:43;;;;;;;7.47;4.53;;;;;;;;;;5051359;28;20432;-46
2023/07/17 06:51:09;;;;;;;11.73;5.00;;;;;;;;;;5051127;28;20935;-46
2023/07/17 06:53:35;;;;;;;6.83;5.00;;;;;;;;;;5051486;28;20439;-47
2023/07/17 06:56:01;;;;;;;7.13;4.80;;;;;;;;;;5051581;28;20887;-46
2023/07/17 06:58:28;;;;;;;10.23;5.53;;;;;;;;;;5047831;28;20457;-48
2023/07/17 07:00:55;;;;;;;9.33;5.13;;;;;;;;;;5048573;28;20456;-49
2023/07/17 07:03:23;;;;;;;9.10;4.80;;;;;;;;;;5051352;28;20416;-46
2023/07/17 07:05:56;;;;;;;12.47;5.53;;;;;;;;;;5048760;28;20411;-50
2023/07/17 07:08:22;;;;;;;8.60;4.80;;;;;;;;;;5047430;28;20842;-46
2023/07/17 07:10:50;;;;;;;8.50;5.10;;;;;;;;;;5051233;28;20423;-46
2023/07/17 07:13:16;;;;;;;8.47;4.70;;;;;;;;;;5051244;28;20409;-46
2023/07/17 07:15:42;;;;;;;8.80;5.60;;;;;;;;;;5050427;28;20429;-46
2023/07/17 07:18:08;;;;;;;10.60;5.20;;;;;;;;;;5048948;28;20462;-46
2023/07/17 07:20:34;;;;;;;10.47;5.67;;;;;;;;;;5050571;28;20981;-48
2023/07/17 07:23:00;;;;;;;7.60;4.93;;;;;;;;;;5051452;28;20902;-50
2023/07/17 07:25:26;;;;;;;8.87;6.07;;;;;;;;;;5051248;28;20826;-46
2023/07/17 07:27:52;;;;;;;12.00;6.37;;;;;;;;;;5051245;28;20514;-49
2023/07/17 07:30:18;;;;;;;16.63;6.07;;;;;;;;;;5050314;28;20419;-46
2023/07/17 07:32:45;;;;;;;10.90;5.33;;;;;;;;;;5052178;28;20497;-46
2023/07/17 07:35:11;;;;;;;8.20;6.83;;;;;;;;;;5053348;28;20415;-49
2023/07/17 07:37:37;;;;;;;7.70;5.27;;;;;;;;;;5055034;28;20793;-46
2023/07/17 07:40:06;;;;;;;10.80;6.77;;;;;;;;;;5054554;28;20501;-46
2023/07/17 07:42:32;;;;;;;10.60;6.83;;;;;;;;;;5054934;28;20414;-46
2023/07/17 07:44:58;;;;;;;6.70;5.40;;;;;;;;;;5054813;28;20789;-46
2023/07/17 07:47:24;;;;;;;12.23;6.97;;;;;;;;;;5053158;28;20420;-47
2023/07/17 07:49:51;;;;;;;11.07;5.70;;;;;;;;;;5054381;28;20452;-47
2023/07/17 07:52:17;;;;;;;9.80;6.30;;;;;;;;;;5054662;28;20413;-49
2023/07/17 07:54:46;;;;;;;7.93;5.47;;;;;;;;;;5054690;28;20435;-47
2023/07/17 07:57:12;;;;;;;13.57;5.90;;;;;;;;;;5054596;28;20771;-47
2023/07/17 07:59:39;;;;;;;11.60;5.80;;;;;;;;;;5046155;28;20410;-48
2023/07/17 08:02:05;;;;;;;12.90;6.50;;;;;;;;;;5052992;28;20437;-46
2023/07/17 08:04:31;;;;;;;9.60;6.23;;;;;;;;;;5054175;28;20399;-48
2023/07/17 08:06:57;;;;;;;10.73;6.00;;;;;;;;;;5054496;28;20409;-47
2023/07/17 08:09:23;;;;;;;11.37;5.67;;;;;;;;;;5054506;28;20524;-46
2023/07/17 08:11:50;;;;;;;7.27;4.90;;;;;;;;;;5054288;28;20387;-47
2023/07/17 08:14:16;;;;;;;6.83;5.53;;;;;;;;;;5054195;28;20911;-47
2023/07/17 08:16:42;;;;;;;8.43;4.90;;;;;;;;;;5052907;28;20394;-47
2023/07/17 08:19:08;;;;;;;10.07;5.27;;;;;;;;;;5054094;28;20405;-46
2023/07/17 08:21:34;;;;;;;10.10;6.37;;;;;;;;;;5053840;28;20526;-46
2023/07/17 08:24:00;;;;;;;9.50;4.93;;;;;;;;;;5054354;28;20428;-47
2023/07/17 08:26:26;;;;;;;8.47;4.93;;;;;;;;;;5053900;28;20406;-48
2023/07/17 08:28:52;;;;;;;9.90;4.60;;;;;;;;;;5054103;28;20421;-49
2023/07/17 08:31:18;;;;;;;9.53;4.93;;;;;;;;;;5052333;28;20452;-46
2023/07/17 08:33:44;;;;;;;6.40;4.03;;;;;;;;;;5053902;28;20828;-47
2023/07/17 08:36:10;;;;;;;6.47;4.60;;;;;;;;;;5054039;28;20817;-47
2023/07/17 08:38:37;;;;;;;5.90;4.37;;;;;;;;;;5053711;28;20464;-47
2023/07/17 08:41:03;;;;;;;5.77;3.83;;;;;;;;;;5053473;28;20503;-49
2023/07/17 08:43:31;;;;;;;5.80;4.00;;;;;;;;;;5051977;28;20421;-50
2023/07/17 08:45:57;;;;;;;5.43;4.00;;;;;;;;;;5052806;28;20450;-46
2023/07/17 08:48:24;;;;;;;5.63;4.87;;;;;;;;;;5051654;28;20433;-46
2023/07/17 08:50:51;;;;;;;5.00;4.40;;;;;;;;;;5053417;28;20916;-47
2023/07/17 08:53:19;;;;;;;7.33;3.97;;;;;;;;;;5053600;28;20763;-47
2023/07/17 08:55:47;;;;;;;6.27;3.60;;;;;;;;;;5053578;28;20420;-46
2023/07/17 08:58:14;;;;;;;7.20;4.60;;;;;;;;;;5052104;28;20503;-47
2023/07/17 09:00:42;;;;;;;6.93;4.77;;;;;;;;;;5053213;28;20482;-47
2023/07/17 09:03:09;;;;;;;7.70;4.40;;;;;;;;;;5053002;28;20416;-46
2023/07/17 09:05:35;;;;;;;6.87;4.77;;;;;;;;;;5053334;28;20936;-49
2023/07/17 09:08:01;;;;;;;5.40;3.87;;;;;;;;;;5053289;28;20933;-51
2023/07/17 09:10:27;;;;;;;7.30;4.03;;;;;;;;;;5052954;28;20483;-47
2023/07/17 09:12:57;;;;;;;7.03;4.37;;;;;;;;;;5051974;28;20470;-47
2023/07/17 09:15:25;;;;;;;6.37;3.90;;;;;;;;;;5051888;28;20420;-47
2023/07/17 09:17:51;;;;;;;6.80;3.83;;;;;;;;;;5053101;28;20426;-47
2023/07/17 09:20:19;;;;;;;4.83;3.93;;;;;;;;;;5052875;28;20471;-47
2023/07/17 09:22:45;;;;;;;10.20;4.43;;;;;;;;;;5053129;28;20411;-50
2023/07/17 09:25:12;;;;;;;8.13;4.10;;;;;;;;;;5046194;28;20418;-50
2023/07/17 09:27:45;;;;;;;4.43;3.63;;;;;;;;;;5052732;28;20923;-48
2023/07/17 09:30:12;;;;;;;6.43;4.07;;;;;;;;;;5052698;28;20937;-47
2023/07/17 09:32:40;;;;;;;7.70;3.60;;;;;;;;;;5052931;28;20408;-48
2023/07/17 09:35:07;;;;;;;5.00;3.90;;;;;;;;;;5051992;28;20420;-48
2023/07/17 09:37:38;;;;;;;4.70;3.93;;;;;;;;;;5052394;28;20420;-47
2023/07/17 09:40:10;;;;;;;6.47;3.57;;;;;;;;;;5052078;28;20553;-50
2023/07/17 09:42:41;;;;;;;6.50;4.30;;;;;;;;;;5052855;28;20467;-48
2023/07/17 09:45:08;;;;;;;5.10;3.40;;;;;;;;;;5052609;28;20421;-47
2023/07/17 09:47:34;;;;;;;7.83;4.40;;;;;;;;;;5047070;28;20806;-48
2023/07/17 09:50:01;;;;;;;6.43;3.93;;;;;;;;;;5050267;28;20976;-47
2023/07/17 09:52:29;;;;;;;4.53;4.13;;;;;;;;;;5052439;28;20425;-50
2023/07/17 09:54:55;;;;;;;5.97;3.87;;;;;;;;;;5051703;28;20413;-47
2023/07/17 09:57:29;;;;;;;6.93;4.13;;;;;;;;;;5052451;28;20507;-47
2023/07/17 09:59:57;;;;;;;4.87;4.20;;;;;;;;;;5049993;28;20460;-47
2023/07/17 10:02:28;;;;;;;4.60;4.13;;;;;;;;;;5052385;28;20409;-47
2023/07/17 10:04:57;;;;;;;6.37;3.73;;;;;;;;;;5047082;28;20415;-48
2023/07/17 10:07:24;;;;;;;4.90;3.27;;;;;;;;;;5034843;28;20407;-48
2023/07/17 10:09:50;;;;;;;3.47;3.17;;;;;;;;;;5034897;28;20485;-48
2023/07/17 10:12:17;;;;;;;10.03;4.33;;;;;;;;;;5052044;28;20422;-47
2023/07/17 10:14:44;;;;;;;4.87;3.57;;;;;;;;;;5052227;28;20931;-48
2023/07/17 10:17:24;;;;;;;5.20;3.07;;;;;;;;;;5052212;28;20413;-48
2023/07/17 10:19:50;;;;;;;7.23;4.20;;;;;;;;;;5051452;28;20877;-51
2023/07/17 10:22:16;;;;;;;7.27;3.40;;;;;;;;;;5052198;28;20416;-50
2023/07/17 10:24:42;;;;;;;5.40;3.37;;;;;;;;;;5051933;28;20782;-47
2023/07/17 10:27:08;;;;;;;4.70;3.57;;;;;;;;;;5051952;28;20443;-47
2023/07/17 10:29:41;;;;;;;6.53;3.40;;;;;;;;;;5047315;28;20869;-47
2023/07/17 10:32:10;;;;;;;3.43;3.00;;;;;;;;;;5051781;28;20446;-50
2023/07/17 10:34:49;;;;;;;4.20;3.70;;;;;;;;;;5051778;28;20410;-48
2023/07/17 10:37:19;;;;;;;5.03;3.47;;;;;;;;;;5051793;28;20413;-48
2023/07/17 10:39:45;;;;;;;4.00;3.60;;;;;;;;;;5051286;28;20430;-48
2023/07/17 10:42:12;;;;;;;5.00;4.13;;;;;;;;;;5051747;28;20460;-47
2023/07/17 10:44:38;;;;;;;7.20;3.87;;;;;;;;;;5051494;28;20778;-51
2023/07/17 10:47:04;;;;;;;5.43;4.13;;;;;;;;;;5051938;28;20425;-48
2023/07/17 10:49:31;;;;;;;4.80;3.60;;;;;;;;;;5051514;28;20489;-48
2023/07/17 10:51:58;;;;;;;7.47;3.40;;;;;;;;;;5051591;28;20416;-48
2023/07/17 10:54:26;;;;;;;7.43;3.70;;;;;;;;;;5051623;28;20935;-47
2023/07/17 10:56:52;;;;;;;4.13;3.27;;;;;;;;;;5051539;28;20427;-48
2023/07/17 10:59:19;;;;;;;5.50;3.70;;;;;;;;;;5039389;28;20457;-48
2023/07/17 11:01:45;;;;;;;6.57;3.70;;;;;;;;;;5041599;28;20475;-47
2023/07/17 11:04:11;;;;;;;5.73;3.63;;;;;;;;;;5047090;28;20428;-47
2023/07/17 11:06:38;;;;;;;4.63;3.60;;;;;;;;;;5053090;28;20496;-48
2023/07/17 11:09:04;;;;;;;5.23;3.70;;;;;;;;;;5046820;28;20449;-47
2023/07/17 11:11:32;;;;;;;5.13;3.97;;;;;;;;;;5054021;28;20838;-52
2023/07/17 11:13:58;;;;;;;4.37;3.40;;;;;;;;;;5045472;28;20422;-48
2023/07/17 11:16:24;;;;;;;6.50;4.70;;;;;;;;;;5046749;28;20414;-48
2023/07/17 11:18:55;;;;;;;6.10;3.40;;;;;;;;;;5043761;28;20802;-48
2023/07/17 11:21:27;;;;;;;6.83;3.87;;;;;;;;;;5052618;28;20863;-50
2023/07/17 11:23:57;;;;;;;6.70;4.10;;;;;;;;;;5051085;28;20899;-47
2023/07/17 11:26:23;;;;;;;6.43;3.53;;;;;;;;;;5053717;28;20507;-47
2023/07/17 11:28:50;;;;;;;5.27;3.83;;;;;;;;;;5047580;28;20560;-49
2023/07/17 11:31:27;;;;;;;6.87;4.17;;;;;;;;;;5050648;28;20929;-49
2023/07/17 11:33:57;;;;;;;7.00;4.27;;;;;;;;;;5052104;28;20966;-48
2023/07/17 11:36:23;;;;;;;7.30;4.13;;;;;;;;;;5054923;28;20408;-49
2023/07/17 11:38:51;;;;;;;7.63;3.90;;;;;;;;;;5051346;28;20535;-48
2023/07/17 11:41:17;;;;;;;16.10;5.20;;;;;;;;;;5048844;28;20462;-47
2023/07/17 11:43:44;;;;;;;7.57;3.97;;;;;;;;;;5053462;28;20791;-50
2023/07/17 11:46:11;;;;;;;5.40;4.37;;;;;;;;;;5052395;28;20415;-49
2023/07/17 11:48:38;;;;;;;5.20;4.50;;;;;;;;;;5053575;28;20434;-48
2023/07/17 11:51:04;;;;;;;6.17;3.93;;;;;;;;;;5054560;28;20891;-47
2023/07/17 11:53:31;;;;;;;8.00;4.07;;;;;;;;;;5054274;28;20416;-50
2023/07/17 11:55:59;;;;;;;6.50;4.03;;;;;;;;;;5049061;28;20490;-49
2023/07/17 11:58:29;;;;;;;6.03;3.93;;;;;;;;;;5054557;28;20439;-47
2023/07/17 12:00:55;;;;;;;9.50;4.70;;;;;;;;;;5054184;28;20562;-51
2023/07/17 12:03:21;;;;;;;5.03;4.00;;;;;;;;;;5054970;28;20506;-50
2023/07/17 12:05:47;;;;;;;6.73;4.63;;;;;;;;;;5054449;28;20660;-47
2023/07/17 12:08:13;;;;;;;5.97;4.33;;;;;;;;;;5054354;28;21314;-47
2023/07/17 12:10:40;;;;;;;7.73;4.60;;;;;;;;;;5054372;28;20420;-49
2023/07/17 12:13:06;;;;;;;6.50;4.30;;;;;;;;;;5053394;28;20849;-49
2023/07/17 12:15:32;;;;;;;6.73;4.53;;;;;;;;;;5054386;28;20458;-51
2023/07/17 12:17:58;;;;;;;10.80;4.10;;;;;;;;;;5053605;28;20448;-51
2023/07/17 12:20:25;;;;;;;7.90;4.73;;;;;;;;;;5053731;28;20472;-47
2023/07/17 12:22:52;;;;;;;6.03;4.00;;;;;;;;;;5054229;28;20420;-51
2023/07/17 12:25:18;;;;;;;7.90;4.77;;;;;;;;;;5054162;28;20901;-49
2023/07/17 12:27:45;;;;;;;4.53;4.10;;;;;;;;;;5054111;28;20424;-47
2023/07/17 12:30:13;;;;;;;11.83;4.50;;;;;;;;;;5051887;28;20401;-51
2023/07/17 12:32:41;;;;;;;4.60;4.17;;;;;;;;;;5034332;28;20413;-47
2023/07/17 12:35:07;;;;;;;16.13;5.07;;;;;;;;;;5053581;28;20497;-47
2023/07/17 12:37:34;;;;;;;5.53;4.10;;;;;;;;;;5054291;28;20425;-47
2023/07/17 12:40:00;;;;;;;8.03;4.30;;;;;;;;;;5053485;28;20557;-47
2023/07/17 12:42:26;;;;;;;4.37;3.97;;;;;;;;;;5053867;28;20421;-46
2023/07/17 12:44:53;;;;;;;4.93;4.10;;;;;;;;;;5053870;28;20420;-47
2023/07/17 12:47:19;;;;;;;5.83;4.20;;;;;;;;;;5038633;28;20410;-47
2023/07/17 12:49:46;;;;;;;7.17;4.53;;;;;;;;;;5053295;28;20456;-47
2023/07/17 12:52:12;;;;;;;4.03;3.60;;;;;;;;;;5053938;28;20420;-51
2023/07/17 12:54:38;;;;;;;6.83;4.27;;;;;;;;;;5053801;28;20504;-47
2023/07/17 12:57:05;;;;;;;4.80;3.80;;;;;;;;;;5053681;28;20413;-47
2023/07/17 12:59:31;;;;;;;5.77;3.67;;;;;;;;;;5053526;28;20437;-48
2023/07/17 13:01:57;;;;;;;6.80;4.10;;;;;;;;;;5053739;28;20567;-48
2023/07/17 13:04:23;;;;;;;7.03;3.43;;;;;;;;;;5053531;28;20405;-49
2023/07/17 13:06:49;;;;;;;4.20;3.27;;;;;;;;;;5053516;28;20421;-48
2023/07/17 13:09:16;;;;;;;6.37;3.47;;;;;;;;;;5053266;28;20417;-52
2023/07/17 13:11:42;;;;;;;6.67;3.80;;;;;;;;;;5053195;28;20420;-49
2023/07/17 13:14:09;;;;;;;8.50;4.10;;;;;;;;;;5053233;28;20413;-47
2023/07/17 13:16:36;;;;;;;6.70;3.67;;;;;;;;;;5053133;28;20424;-51
2023/07/17 13:19:02;;;;;;;4.60;3.83;;;;;;;;;;5053131;28;20814;-52
2023/07/17 13:21:28;;;;;;;6.10;4.20;;;;;;;;;;5052885;28;20469;-48
2023/07/17 13:23:58;;;;;;;5.37;4.00;;;;;;;;;;5053348;28;20888;-47
2023/07/17 13:26:28;;;;;;;6.37;4.17;;;;;;;;;;5053262;28;20501;-47
2023/07/17 13:28:54;;;;;;;4.67;4.00;;;;;;;;;;5052773;28;20810;-47
2023/07/17 13:31:22;;;;;;;4.60;4.07;;;;;;;;;;5051795;28;20876;-47
2023/07/17 13:33:49;;;;;;;6.27;4.10;;;;;;;;;;5052793;28;20409;-49
2023/07/17 13:36:17;;;;;;;6.07;4.70;;;;;;;;;;5052880;28;20751;-47
2023/07/17 13:38:43;;;;;;;8.97;4.80;;;;;;;;;;5052698;28;20437;-47
2023/07/17 13:41:20;;;;;;;7.87;4.57;;;;;;;;;;5052357;28;20468;-48
2023/07/17 13:43:46;;;;;;;6.03;4.53;;;;;;;;;;5045450;28;20405;-51
2023/07/17 13:46:16;;;;;;;5.90;4.40;;;;;;;;;;5047478;28;20417;-53
2023/07/17 13:48:42;;;;;;;4.90;4.33;;;;;;;;;;5052480;28;20439;-48
2023/07/17 13:51:08;;;;;;;4.57;3.70;;;;;;;;;;5052274;28;20527;-47
2023/07/17 13:53:34;;;;;;;7.60;4.13;;;;;;;;;;5052112;28;20424;-50
2023/07/17 13:56:00;;;;;;;8.80;4.17;;;;;;;;;;5052544;28;20420;-48
2023/07/17 13:58:26;;;;;;;5.57;3.63;;;;;;;;;;5052152;28;20516;-50
2023/07/17 14:00:52;;;;;;;7.20;3.50;;;;;;;;;;5051990;28;20467;-47
2023/07/17 14:03:18;;;;;;;4.23;3.70;;;;;;;;;;5052383;28;20412;-47
2023/07/17 14:05:44;;;;;;;6.60;4.00;;;;;;;;;;5052024;28;20413;-47
2023/07/17 14:08:10;;;;;;;6.57;3.70;;;;;;;;;;5052246;28;20417;-48
2023/07/17 14:10:36;;;;;;;4.60;4.07;;;;;;;;;;5051995;28;20470;-48
2023/07/17 14:13:02;;;;;;;5.30;3.87;;;;;;;;;;5052124;28;20479;-48
2023/07/17 14:15:29;;;;;;;5.50;3.40;;;;;;;;;;5052047;28;20445;-47
2023/07/17 14:17:55;;;;;;;6.63;3.30;;;;;;;;;;5051983;28;20410;-50
2023/07/17 14:20:23;;;;;;;6.57;4.07;;;;;;;;;;5051463;28;20471;-47
2023/07/17 14:22:49;;;;;;;4.73;4.23;;;;;;;;;;5052031;28;20504;-48
2023/07/17 14:25:15;;;;;;;13.13;4.80;;;;;;;;;;5051846;28;20951;-47
2023/07/17 14:27:41;;;;;;;10.40;5.37;;;;;;;;;;5051847;28;20769;-48
2023/07/17 14:30:07;;;;;;;31.73;6.03;;;;;;;;;;5051747;28;20777;-49
2023/07/17 14:32:34;;;;;;;37.77;6.90;;;;;;;;;;5051783;28;20425;-51
2023/07/17 14:35:00;;;;;;;164.80;18.87;;;;;;;;;;5051656;28;20416;-47
2023/07/17 14:37:26;;;;;;;59.73;12.30;;;;;;;;;;5051881;28;20504;-47